x

Central Aleutians 230nm Sw Dutch Harbor (46072) Wave Buoy

3:50 - Sun 25th Sep 2016 All times are UTC.

  • Sig Wave height 4.6ft
  • Swell Direction
  • Peak Period 8s
  • Average Period 6s
  • Wind
    13mph, 25mph gusts
  • Sea Temp 48°f
  • Ar Temp 49°f
  • Sea Pressure 1023.5mb

More Historic Weather Station data

Upgrade to MSW Pro to gain access to the past 30 days of data for over 8000 Wavebouys and Weather Stations around the globe.

Join Pro

Comparision Forecast

View Surf forecast
   
Dom 09/25 3:50 4.5ft 8s 6s 13 25 mph 1023.5mb 48f 49f
2:50 5ft 7s 6s 11 13 mph 1023.7mb 48f 49f
1:50 5ft 7s 6s 13 18 mph 1023.9mb 48f 47f
12:50 5ft 7s 6s 9 11 mph 1024mb 49f 48f
11:50 5ft 8s 6s 11 13 mph 1024.2mb 48f 48f
10:50 4.5ft 9s 6s 13 16 mph 1024mb 48f 48f
9:50 5ft 8s 6s 13 18 mph 1024.2mb 48f 48f
8:50 4.5ft 6s 6s 11 13 mph 1024.3mb 48f 48f
7:50 5ft 7s 6s 13 18 mph 1024mb 50f 49f
6:50 5.5ft 8s 6s 11 13 mph 1023.7mb 50f 49f
5:50 6ft 7s 6s 13
mph
1023mb 50f 49f
4:50 6ft 7s 6s 16 18 mph 1022.7mb 50f 49f
3:50 6ft 7s 6s 16 18 mph 1022.2mb 51f 49f
2:50 6ft 8s 6s 16 18 mph 1022.2mb 51f 49f
1:50 6ft 8s 6s 16 18 mph 1022.1mb 50f 49f
12:50 6ft 8s 6s 13 16 mph 1021.8mb 50f 49f
Sáb 09/24 11:50 6ft 9s 7s 16 20 mph 1021.7mb 50f 49f
10:50 6.5ft 8s 7s 18 20 mph 1021.4mb 51f 49f
9:50 7ft 9s 7s 18 20 mph 1021.3mb 51f 49f
8:50 6ft 9s 7s 18 22 mph 1021.1mb 49f 49f
7:50 6ft 9s 7s 16 18 mph 1020.7mb 49f 49f
6:50 6ft 9s 7s 18 20 mph 1020.2mb 50f 48f
5:50 6ft 9s 7s 16 20 mph 1019.6mb 50f 49f
4:50 6ft 9s 6s 18 20 mph 1019mb 51f 49f
3:50 7ft 9s 6s 18 20 mph 1018.6mb 51f 48f
2:50 6.5ft 8s 6s 18 20 mph 1018.2mb 51f 48f
1:50 6.5ft 9s 6s 16 20 mph 1018.2mb 51f 48f
12:50 7ft 9s 6s 16 18 mph 1018.1mb 51f 48f
11:50 7ft 8s 7s 16 20 mph 1017.7mb 51f 48f
10:50 6ft 8s 7s 16 18 mph 1017.7mb 51f 48f
9:50 6ft 8s 6s 18 20 mph 1017.4mb 51f 48f
8:50 6ft 9s 7s 16 18 mph 1017.2mb 51f 48f
7:50 6.5ft 8s 7s 18 22 mph 1016.5mb 50f 48f
6:50 6.5ft 9s 6s 20 25 mph 1015.7mb 50f 48f
5:50 6.5ft 9s 6s 18 20 mph 1014.9mb 50f 48f
4:50 6.5ft 7s 6s 18 22 mph 1014.1mb 51f 49f
3:50 6.5ft 8s 6s 20 22 mph 1013.1mb 51f 49f
2:50 7ft 8s 6s 18 22 mph 1012.5mb 51f 49f
1:50 6.5ft 7s 6s 22 25 mph 1011.7mb 51f 49f
12:50 6.5ft 8s 6s 20 25 mph 1011.1mb 51f 49f
Sex 09/23 11:50 7ft 8s 6s 20 25 mph 1010.6mb 51f 49f
10:50 6ft 8s 7s 20 25 mph 1010.2mb 51f 49f
9:50 6ft 9s 6s 16 20 mph 1009.8mb 51f 49f
8:50 5.5ft 7s 6s 18 20 mph 1009mb 51f 49f
7:50 6ft 9s 6s 16 20 mph 1008.1mb 51f 48f
5:50 7ft 8s 7s 13 18 mph 1006.8mb 50f 46f
4:50 6.5ft 9s 6s 13 16 mph 1006.1mb 50f 46f
3:50 7ft 8s 7s 16 18 mph 1005.4mb 47f 46f
2:50 7ft 8s 6s 13 16 mph 1005mb 47f 46f
12:50 7ft 9s 7s 13 18 mph 1004.4mb 48f 46f
11:50 7.5ft 8s 7s 11 16 mph 1004.3mb 48f 46f
10:50 7ft 10s 7s 13 16 mph 1004.1mb 48f 46f
9:50 7ft 8s 7s 13 16 mph 1003.8mb 48f 47f
8:50 7ft 9s 7s 13 18 mph 1003.3mb 48f 47f
7:50 7ft 8s 7s 16 18 mph 1002.9mb 48f 47f
6:50 7ft 8s 6s 16 18 mph 1002.4mb 48f 47f
5:50 8ft 9s 7s 16 20 mph 1001.9mb 48f 47f
4:50 8.5ft 8s 7s 18 20 mph 1001.5mb 48f 47f
3:50 9ft 8s 6s 16 18 mph 1001.1mb 47f 46f
2:50 9.5ft 8s 6s 18 22 mph 1000.9mb 47f 46f
1:50 9.5ft 8s 7s 18 22 mph 1000.7mb 46f 47f
12:50 10ft 8s 7s 20 25 mph 1000.6mb 46f 46f
Qui 09/22 11:50 8.5ft 8s 7s 18 22 mph 1000.8mb 46f 47f
10:50 8ft 9s 7s 18 22 mph 1000.8mb 46f 47f
9:50 8ft 8s 7s 18 22 mph 1000.8mb 46f 47f
8:50 7ft 9s 6s 18 20 mph 1000.7mb 46f 47f
7:50 6.5ft 8s 6s 18 22 mph 1000.5mb 45f 47f
6:50 7ft 8s 6s 16 20 mph 1000.2mb 46f 47f
5:50 7ft 9s 6s 20 22 mph 1000mb 46f 46f
4:50 7.5ft 10s 6s 18 22 mph 999.7mb 46f 47f
3:50 7.5ft 7s 6s 18 22 mph 999.6mb 46f 47f
2:50 8ft 7s 6s 18 22 mph 999.6mb 46f 47f
1:50 8ft 8s  -  20 25 mph 999.7mb 46f 47f
12:50 8ft 8s 6s 20 25 mph 999.8mb 46f 47f
11:50 8ft 7s 6s 18 20 mph 1000.1mb 46f 47f
10:50 8ft 8s 7s 18 22 mph 1000.1mb 46f 47f
9:50 8.5ft 8s 7s 18 22 mph 1000.2mb 46f 47f
8:50 8ft 8s 7s 18 22 mph 1000.5mb 46f 47f
7:50 7ft 8s 7s 18 22 mph 1000.3mb 46f 48f
6:50 7ft 8s 7s 18 22 mph 1000mb 46f 48f
5:50 8ft 8s 7s 18 25 mph 999.7mb 47f 48f
4:50 8ft 8s 6s 18 22 mph 999.8mb 47f 48f
3:50 8ft 7s 6s 22 27 mph 999.5mb 47f 49f
2:50 8ft 9s 6s 22 27 mph 999.3mb 47f 48f
1:50 9ft 8s 6s 20 25 mph 999.3mb 47f 48f
12:50 9ft 8s 6s 18 22 mph 999.6mb - 49f
Qua 09/21 11:50 9ft 8s 7s 20 25 mph 999.7mb - 49f
10:50 9.5ft 9s 7s 18 20 mph 999.9mb - 48f
9:50 9.5ft 8s 7s 18 22 mph 1000.1mb - 48f
8:50 9.5ft 9s 7s 18 25 mph 1000.1mb - 48f
7:50 8.5ft 8s 7s 20 25 mph 999.9mb - 48f
6:50 8.5ft 8s 7s 18 25 mph 999.6mb - 48f
5:50 8ft 7s 7s 20 29 mph 999mb - 48f